Time;durP1;ratioP1;P1;durP2;ratioP2;P2;SDS_P1;SDS_P2;PMS_P1;PMS_P2;Temp;Humidity;BMP_temperature;BMP_pressure;BME280_temperature;BME280_humidity;BME280_pressure;Samples;Min_cycle;Max_cycle;Signal;HPM_P1;HPM_P2
2021/12/05 00:23:35;;;;;;;4.63;1.15;;;;;;;9.72;100.00;101507.47;5053561;28;20282;-72
2021/12/05 00:26:05;;;;;;;6.47;1.30;;;;;;;9.68;100.00;101510.75;5053482;28;20127;-71
2021/12/05 00:29:01;;;;;;;5.95;1.63;;;;;;;9.64;100.00;101509.72;5053536;28;20048;-72
2021/12/05 00:31:46;;;;;;;3.58;1.30;;;;;;;9.61;100.00;101508.69;5053124;28;20049;-70
2021/12/05 00:45:41;;;;;;;9.27;1.83;;;;;;;9.55;100.00;101531.66;5052898;28;20103;-71
2021/12/05 00:56:48;;;;;;;2.17;1.08;;;;;;;9.49;100.00;101533.97;5028335;28;20143;-71
2021/12/05 00:59:32;;;;;;;2.17;1.15;;;;;;;9.53;100.00;101538.44;5073121;28;20048;-70
2021/12/05 01:02:19;;;;;;;2.35;1.55;;;;;;;9.46;100.00;101545.06;5073500;28;20479;-70
2021/12/05 01:05:13;;;;;;;5.68;1.45;;;;;;;9.43;100.00;101540.59;5075248;28;20053;-71
2021/12/05 01:08:00;;;;;;;5.00;1.88;;;;;;;9.40;100.00;101555.97;5072919;28;20045;-71
2021/12/05 01:10:52;;;;;;;6.60;1.70;;;;;;;9.40;100.00;101535.31;5068906;27;20056;-73
2021/12/05 01:13:35;;;;;;;5.90;1.65;;;;;;;9.44;100.00;101526.91;5052248;28;20510;-71
2021/12/05 01:16:07;;;;;;;1.38;0.85;;;;;;;9.47;100.00;101546.81;5052779;28;20053;-70
2021/12/05 01:18:38;;;;;;;3.13;1.38;;;;;;;9.50;100.00;101548.66;5052368;28;20048;-70
2021/12/05 01:21:12;;;;;;;6.78;1.73;;;;;;;9.50;100.00;101527.97;5052566;28;20048;-69
2021/12/05 01:23:51;;;;;;;2.55;1.55;;;;;;;9.47;100.00;101545.94;5051911;28;20048;-70
2021/12/05 01:26:24;;;;;;;2.20;1.33;;;;;;;9.51;100.00;101532.34;5052329;28;20059;-71
2021/12/05 01:29:06;;;;;;;4.20;1.92;;;;;;;9.53;100.00;101543.63;5052523;28;20045;-69
2021/12/05 01:31:47;;;;;;;2.63;1.30;;;;;;;9.41;100.00;101537.09;5051983;28;20052;-70
2021/12/05 01:34:30;;;;;;;2.90;1.40;;;;;;;9.50;100.00;101546.94;5052208;28;20049;-70
2021/12/05 01:37:09;;;;;;;3.53;1.20;;;;;;;9.51;100.00;101546.16;5052189;28;20478;-70
2021/12/05 01:40:01;;;;;;;4.43;1.25;;;;;;;9.51;100.00;101550.44;5052722;28;20106;-69
2021/12/05 01:45:45;;;;;;;4.68;1.20;;;;;;;9.53;100.00;101557.44;5014264;28;20134;-69
2021/12/05 01:53:58;;;;;;;2.03;1.33;;;;;;;9.57;100.00;101563.63;5058389;28;20060;-69
2021/12/05 02:16:05;;;;;;;2.67;1.00;;;;;;;9.71;100.00;101600.44;5016626;28;20048;-69
2021/12/05 02:29:57;;;;;;;3.10;1.20;;;;;;;9.72;100.00;101618.59;5051416;28;20068;-69
2021/12/05 02:35:33;;;;;;;1.65;1.00;;;;;;;9.74;100.00;101623.84;5051243;28;20056;-70
2021/12/05 02:38:16;;;;;;;3.00;1.40;;;;;;;9.72;100.00;101648.75;5050669;28;20072;-70
2021/12/05 02:41:03;;;;;;;2.90;1.13;;;;;;;9.73;100.00;101620.38;5051176;28;20126;-70
2021/12/05 02:43:34;;;;;;;1.88;0.90;;;;;;;9.74;100.00;101629.03;5050691;28;20106;-70
2021/12/05 02:46:04;;;;;;;2.13;1.02;;;;;;;9.74;100.00;101629.91;5050883;28;20056;-69
2021/12/05 02:48:36;;;;;;;1.75;0.93;;;;;;;9.76;100.00;101627.41;5063246;28;20409;-70
2021/12/05 02:51:09;;;;;;;3.17;1.35;;;;;;;9.78;100.00;101637.00;5070906;28;20046;-69
2021/12/05 02:53:43;;;;;;;2.25;0.93;;;;;;;9.82;100.00;101644.06;5070499;28;20457;-68
2021/12/05 02:56:13;;;;;;;2.80;1.35;;;;;;;9.83;100.00;101644.97;5070921;28;20083;-69
2021/12/05 02:58:45;;;;;;;4.43;1.08;;;;;;;9.83;100.00;101651.00;5071657;28;20067;-69
2021/12/05 03:01:21;;;;;;;3.92;1.23;;;;;;;9.93;100.00;101669.53;5072567;28;20055;-70
2021/12/05 03:03:52;;;;;;;1.95;0.90;;;;;;;9.97;100.00;101677.50;5070543;28;20360;-70
2021/12/05 03:06:24;;;;;;;3.22;1.10;;;;;;;10.01;100.00;101678.50;5070649;28;20098;-70
2021/12/05 03:08:57;;;;;;;3.28;1.35;;;;;;;10.07;100.00;101683.97;5070886;28;20124;-71
2021/12/05 03:11:26;;;;;;;;;;;;;;;10.14;100.00;101687.75;5059427;27;20068;-70
2021/12/05 03:13:55;;;;;;;1.13;0.88;;;;;;;10.16;100.00;101707.69;5050424;28;20212;-71
2021/12/05 03:16:27;;;;;;;2.25;0.90;;;;;;;10.23;100.00;101721.78;5050588;28;20049;-71
2021/12/05 03:18:56;;;;;;;4.28;1.33;;;;;;;10.27;100.00;101722.00;5050765;28;20114;-71
2021/12/05 03:21:25;;;;;;;2.28;0.98;;;;;;;10.31;100.00;101725.66;5050448;28;20077;-71
2021/12/05 03:23:57;;;;;;;2.42;0.95;;;;;;;10.33;100.00;101724.03;5050438;28;20480;-71
2021/12/05 03:26:31;;;;;;;1.27;1.03;;;;;;;10.30;100.00;101726.47;5050485;28;20052;-70
2021/12/05 03:29:00;;;;;;;2.00;0.88;;;;;;;10.27;100.00;101727.16;5052199;28;20052;-70
2021/12/05 03:31:32;;;;;;;1.45;0.77;;;;;;;10.27;100.00;101732.34;5050445;28;20473;-71
2021/12/05 03:34:02;;;;;;;1.73;0.75;;;;;;;10.26;100.00;101740.94;5050321;28;20132;-71
2021/12/05 03:36:32;;;;;;;1.52;0.85;;;;;;;10.27;100.00;101744.41;5050559;28;20052;-70
2021/12/05 03:39:03;;;;;;;1.23;0.77;;;;;;;10.27;100.00;101753.03;5051195;28;20106;-71
2021/12/05 03:41:32;;;;;;;2.63;0.57;;;;;;;10.33;100.00;101752.50;5051560;28;20133;-71
2021/12/05 03:44:04;;;;;;;2.53;0.80;;;;;;;10.37;100.00;101758.69;5051468;28;20091;-70
2021/12/05 03:46:33;;;;;;;1.47;0.53;;;;;;;10.38;100.00;101760.47;5051593;28;20198;-70
2021/12/05 03:49:07;;;;;;;2.38;0.50;;;;;;;10.40;100.00;101777.81;5067653;28;20297;-71
2021/12/05 03:51:37;;;;;;;0.40;0.32;;;;;;;10.38;100.00;101784.63;5073891;28;20506;-69
2021/12/05 03:54:08;;;;;;;1.95;0.52;;;;;;;10.37;100.00;101784.53;5074122;28;20045;-71
2021/12/05 03:56:38;;;;;;;0.80;0.50;;;;;;;10.35;100.00;101779.28;5075766;28;20506;-70
2021/12/05 03:59:09;;;;;;;1.15;0.57;;;;;;;10.33;100.00;101793.88;5076173;28;20102;-71
2021/12/05 04:01:38;;;;;;;1.02;0.60;;;;;;;10.32;100.00;101796.38;5074457;28;20049;-71
2021/12/05 04:04:07;;;;;;;2.20;0.55;;;;;;;10.33;100.00;101795.56;5073897;28;20052;-70
2021/12/05 04:06:36;;;;;;;1.15;0.50;;;;;;;10.32;100.00;101806.72;5073953;28;20093;-71
2021/12/05 04:09:09;;;;;;;0.50;0.40;;;;;;;10.34;100.00;101811.16;5073907;28;20118;-70
2021/12/05 04:11:43;;;;;;;2.13;0.35;;;;;;;10.34;100.00;101815.47;5059940;28;20052;-70
2021/12/05 04:14:14;;;;;;;1.73;0.40;;;;;;;10.35;100.00;101810.34;5053726;28;20433;-71
2021/12/05 04:16:45;;;;;;;0.38;0.28;;;;;;;10.37;100.00;101825.94;5053671;28;20515;-71
2021/12/05 04:19:13;;;;;;;0.90;0.28;;;;;;;10.41;100.00;101830.44;5053598;28;20048;-70
2021/12/05 04:21:42;;;;;;;1.23;0.38;;;;;;;10.45;100.00;101834.97;5053415;28;20077;-69
2021/12/05 04:24:14;;;;;;;1.15;0.30;;;;;;;10.48;100.00;101840.28;5053336;28;20057;-69
2021/12/05 04:26:43;;;;;;;0.85;0.20;;;;;;;10.52;100.00;101843.91;5053630;28;20510;-70
2021/12/05 04:29:12;;;;;;;0.40;0.22;;;;;;;10.54;100.00;101840.56;5053391;28;20048;-69
2021/12/05 04:31:41;;;;;;;0.85;0.22;;;;;;;10.57;100.00;101845.88;5053270;28;20060;-69
2021/12/05 04:34:11;;;;;;;0.30;0.25;;;;;;;10.55;100.00;101842.31;5053022;28;20049;-69
2021/12/05 04:36:40;;;;;;;0.55;0.30;;;;;;;10.55;100.00;101857.84;5053366;28;20458;-69
2021/12/05 04:39:09;;;;;;;0.30;0.30;;;;;;;10.56;100.00;101862.25;5053260;28;20057;-68
2021/12/05 04:41:41;;;;;;;1.38;0.20;;;;;;;10.58;100.00;101877.81;5053162;28;20049;-69
2021/12/05 04:44:10;;;;;;;0.73;0.35;;;;;;;10.61;100.00;101881.44;5053095;28;20056;-70
2021/12/05 04:46:39;;;;;;;1.75;0.32;;;;;;;10.63;100.00;101887.59;5053140;28;20053;-70
2021/12/05 04:49:08;;;;;;;2.05;0.20;;;;;;;10.69;100.00;101897.34;5070411;28;20102;-70
2021/12/05 04:51:39;;;;;;;1.60;0.40;;;;;;;10.75;100.00;101917.47;5072906;28;20048;-70
2021/12/05 04:54:10;;;;;;;2.47;1.25;;;;;;;10.79;100.00;101909.00;5073949;28;20053;-71
2021/12/05 04:56:41;;;;;;;1.92;0.60;;;;;;;10.82;100.00;101914.34;5074537;28;20075;-70
2021/12/05 04:59:13;;;;;;;0.10;0.10;;;;;;;10.83;100.00;101923.88;5073117;28;20052;-69
2021/12/05 05:01:42;;;;;;;0.20;0.20;;;;;;;10.78;100.00;101930.53;5072638;28;20056;-71
2021/12/05 05:04:19;;;;;;;0.95;0.13;;;;;;;10.75;100.00;101933.00;5072648;28;20410;-70
2021/12/05 05:06:47;;;;;;;0.30;0.20;;;;;;;10.74;100.00;101926.91;5073199;28;20087;-70
2021/12/05 05:09:16;;;;;;;0.57;0.30;;;;;;;10.72;100.00;101943.19;5073242;28;20052;-71
2021/12/05 05:11:47;;;;;;;0.73;0.50;;;;;;;10.72;100.00;101950.94;5057489;28;20080;-69
2021/12/05 05:14:15;;;;;;;0.95;0.63;;;;;;;10.70;100.00;101953.47;5053119;28;20568;-71
2021/12/05 05:16:45;;;;;;;1.50;0.40;;;;;;;10.68;100.00;101971.53;5052681;28;20127;-71
2021/12/05 05:19:16;;;;;;;0.22;0.22;;;;;;;10.65;100.00;101973.06;5052384;28;20045;-72
2021/12/05 05:21:50;;;;;;;0.47;0.40;;;;;;;10.62;100.00;101975.50;5052406;28;20091;-71
2021/12/05 05:41:26;;;;;;;0.30;0.20;;;;;;;10.38;100.00;102019.19;5052478;28;20052;-70
2021/12/05 05:46:51;;;;;;;0.43;0.20;;;;;;;10.35;100.00;102032.81;5031136;28;20049;-71
2021/12/05 05:49:22;;;;;;;0.20;0.20;;;;;;;10.35;100.00;102038.00;5060842;28;20049;-71
2021/12/05 05:51:51;;;;;;;0.20;0.15;;;;;;;10.36;100.00;102044.97;5073998;28;20053;-71
2021/12/05 05:54:20;;;;;;;0.38;0.30;;;;;;;10.37;100.00;102048.44;5072900;28;20102;-71
2021/12/05 05:56:54;;;;;;;1.45;0.10;;;;;;;10.37;100.00;102053.63;5071916;28;20049;-71
2021/12/05 05:59:30;;;;;;;0.20;0.20;;;;;;;10.35;100.00;102060.41;5071920;28;20045;-71
2021/12/05 06:04:40;;;;;;;0.65;0.30;;;;;;;10.30;100.00;102075.69;5070673;28;20053;-70
2021/12/05 06:07:09;;;;;;;2.55;0.38;;;;;;;10.27;100.00;102091.91;5071649;28;20489;-69
2021/12/05 06:09:38;;;;;;;0.40;0.20;;;;;;;10.26;100.00;102099.59;5072561;27;20482;-69
2021/12/05 06:12:07;;;;;;;0.47;0.40;;;;;;;10.25;100.00;102103.88;5053420;28;20499;-70
2021/12/05 06:14:37;;;;;;;0.47;0.40;;;;;;;10.21;100.00;102111.41;5050932;28;20053;-69
2021/12/05 06:17:06;;;;;;;0.43;0.22;;;;;;;10.21;100.00;102119.16;5051624;28;20402;-69
2021/12/05 06:19:35;;;;;;;0.38;0.38;;;;;;;10.19;100.00;102115.59;5051155;28;20052;-69
2021/12/05 06:22:03;;;;;;;1.17;0.30;;;;;;;10.14;100.00;102125.69;5042925;28;20049;-69
2021/12/05 06:24:32;;;;;;;0.73;0.40;;;;;;;10.07;100.00;102131.34;5051394;28;20049;-68
2021/12/05 06:27:01;;;;;;;0.43;0.32;;;;;;;10.01;100.00;102136.19;5051176;28;20060;-68
2021/12/05 06:29:35;;;;;;;1.50;0.50;;;;;;;10.03;100.00;102139.75;5051408;28;20529;-69
2021/12/05 06:32:33;;;;;;;0.50;0.30;;;;;;;10.02;100.00;102138.00;5050964;28;20048;-69
2021/12/05 06:37:49;;;;;;;0.55;0.40;;;;;;;10.02;100.00;102127.63;5051232;28;20147;-69
2021/12/05 06:40:33;;;;;;;4.18;0.40;;;;;;;10.00;100.00;102140.47;5051317;28;20057;-69
2021/12/05 06:43:05;;;;;;;2.67;0.30;;;;;;;9.96;100.00;102135.94;5050505;28;20576;-70
2021/12/05 06:48:20;;;;;;;0.52;0.45;;;;;;;9.85;100.00;102148.31;5061846;28;20047;-70
2021/12/05 06:50:49;;;;;;;0.47;0.30;;;;;;;9.83;100.00;102149.03;5074219;28;20101;-69
2021/12/05 06:53:17;;;;;;;0.50;0.40;;;;;;;9.79;100.00;102150.53;5070915;28;20102;-70
2021/12/05 06:55:46;;;;;;;0.77;0.57;;;;;;;9.70;100.00;102165.56;5071403;28;20049;-70
2021/12/05 06:58:14;;;;;;;0.30;0.30;;;;;;;9.61;100.00;102163.34;5071197;28;20056;-70
2021/12/05 07:00:43;;;;;;;0.80;0.47;;;;;;;9.57;100.00;102158.78;5072723;28;20501;-70
2021/12/05 07:03:11;;;;;;;0.50;0.35;;;;;;;9.51;100.00;102171.38;5070630;28;20052;-70
2021/12/05 07:05:51;;;;;;;0.40;0.40;;;;;;;9.47;100.00;102186.63;5070772;28;20045;-70
2021/12/05 07:08:21;;;;;;;0.77;0.60;;;;;;;9.42;100.00;102204.47;5071034;28;20564;-70
2021/12/05 07:10:56;;;;;;;0.95;0.40;;;;;;;9.36;100.00;102204.97;5064619;27;20056;-70
2021/12/05 07:16:16;;;;;;;0.63;0.40;;;;;;;9.27;100.00;102219.06;5051988;28;20191;-70
2021/12/05 07:18:59;;;;;;;1.42;0.70;;;;;;;9.22;100.00;102227.44;5052483;28;20510;-69
2021/12/05 07:24:19;;;;;;;1.00;0.75;;;;;;;9.06;100.00;102249.69;5048061;28;19921;-70
2021/12/05 07:40:16;;;;;;;0.98;0.50;;;;;;;8.97;100.00;102250.03;5054801;28;20132;-69
2021/12/05 07:41:21;;;;;;;0.43;0.38;;;;;;;8.28;100.00;102269.88;5054822;28;20091;-70
2021/12/05 07:43:50;;;;;;;0.95;0.55;;;;;;;8.11;100.00;102270.50;5053783;28;20490;-69
2021/12/05 07:46:19;;;;;;;1.77;0.55;;;;;;;8.00;100.00;102274.06;5054783;28;20140;-69
2021/12/05 07:48:47;;;;;;;0.20;0.20;;;;;;;7.89;100.00;102281.09;5070921;28;20052;-70
2021/12/05 07:51:25;;;;;;;2.03;0.50;;;;;;;7.78;100.00;102280.41;5074769;28;20048;-69
2021/12/05 07:54:05;;;;;;;0.70;0.38;;;;;;;7.72;100.00;102290.31;5073842;28;20486;-70
2021/12/05 07:56:43;;;;;;;1.45;0.40;;;;;;;7.65;100.00;102294.19;5074298;28;20410;-68
2021/12/05 07:59:35;;;;;;;2.33;0.50;;;;;;;7.58;100.00;102291.06;5074345;28;20048;-69
2021/12/05 08:16:00;;;;;;;0.35;0.28;;;;;;;7.09;100.00;102315.31;5054166;28;20084;-68
2021/12/05 08:18:29;;;;;;;1.05;0.40;;;;;;;7.07;100.00;102326.28;5053796;28;20053;-68
2021/12/05 08:20:59;;;;;;;1.05;0.63;;;;;;;7.03;100.00;102329.44;5054043;28;20413;-68
2021/12/05 08:23:28;;;;;;;0.85;0.40;;;;;;;6.96;100.00;102330.69;5053556;28;20064;-68
2021/12/05 08:26:04;;;;;;;1.45;0.65;;;;;;;6.95;100.00;102351.19;5053869;28;20049;-68
2021/12/05 08:28:51;;;;;;;2.63;0.50;;;;;;;6.88;100.00;102352.44;5053687;28;20091;-68
2021/12/05 08:31:30;;;;;;;0.75;0.40;;;;;;;6.83;100.00;102352.13;5053992;28;20495;-68
2021/12/05 08:34:08;;;;;;;1.48;0.60;;;;;;;6.74;100.00;102364.34;5053245;28;20057;-68
2021/12/05 08:42:37;;;;;;;0.38;0.30;;;;;;;6.61;100.00;102379.69;5051956;28;20106;-68
2021/12/05 08:45:41;;;;;;;0.60;0.45;;;;;;;6.57;100.00;102382.81;5053888;28;20057;-69
2021/12/05 10:03:06;;;;;;;0.45;0.22;;;;;;;5.37;100.00;102507.41;5071685;28;20059;-68
2021/12/05 10:11:20;;;;;;;1.50;0.50;;;;;;;5.36;100.00;102521.00;5063601;27;20522;-68
2021/12/05 10:14:15;;;;;;;0.32;0.25;;;;;;;5.36;100.00;102532.19;5051158;28;20313;-68
2021/12/05 10:16:58;;;;;;;0.68;0.20;;;;;;;5.39;100.00;102541.81;5051843;28;20163;-68
2021/12/05 10:20:05;;;;;;;5.72;0.57;;;;;;;5.39;100.00;102552.97;5051615;28;20045;-68
2021/12/05 10:36:22;;;;;;;0.90;0.50;;;;;;;5.33;100.00;102577.25;5051609;28;20076;-68
2021/12/05 10:38:59;;;;;;;1.67;0.60;;;;;;;5.30;100.00;102571.88;5051255;28;20051;-68
2021/12/05 10:41:59;;;;;;;3.28;0.32;;;;;;;5.29;100.00;102577.75;5051520;28;20433;-67
2021/12/05 10:44:43;;;;;;;0.15;0.10;;;;;;;5.22;100.00;102573.81;5051325;28;20041;-67
2021/12/05 10:47:12;;;;;;;0.63;0.45;;;;;;;5.18;100.00;102576.94;5055627;28;20053;-68
2021/12/05 10:49:41;;;;;;;0.40;0.30;;;;;;;5.17;100.00;102585.38;5071214;28;20052;-67
2021/12/05 10:52:16;;;;;;;2.03;0.47;;;;;;;5.16;100.00;102583.59;5071376;28;20418;-67
2021/12/05 10:54:57;;;;;;;0.50;0.30;;;;;;;5.13;100.00;102591.03;5071406;28;20182;-67
2021/12/05 10:57:30;;;;;;;1.98;0.40;;;;;;;5.10;100.00;102594.25;5071595;28;20064;-67
2021/12/05 11:00:11;;;;;;;1.25;0.57;;;;;;;5.06;100.00;102599.91;5071016;28;20054;-67
2021/12/05 11:02:40;;;;;;;2.30;0.73;;;;;;;5.05;100.00;102600.69;5070515;28;20049;-67
2021/12/05 11:05:09;;;;;;;0.75;0.57;;;;;;;4.98;100.00;102595.81;5070866;28;20098;-68
2021/12/05 11:07:39;;;;;;;1.60;0.80;;;;;;;4.92;100.00;102605.56;5070953;28;20052;-68
2021/12/05 11:10:31;;;;;;;0.90;0.50;;;;;;;4.85;100.00;102608.41;5069958;28;20518;-68
2021/12/05 11:13:00;;;;;;;2.05;0.98;;;;;;;4.80;100.00;102614.06;5050294;28;20103;-67
2021/12/05 11:15:36;;;;;;;1.77;0.73;;;;;;;4.75;100.00;102625.59;5051105;28;20045;-67
2021/12/05 11:18:05;;;;;;;5.28;0.60;;;;;;;4.70;100.00;102621.78;5050689;28;20110;-68
2021/12/05 11:20:37;;;;;;;1.38;0.77;;;;;;;4.67;100.00;102630.88;5051041;28;20128;-67
2021/12/05 11:23:05;;;;;;;1.55;0.65;;;;;;;4.64;100.00;102628.94;5050668;28;20049;-68
2021/12/05 11:25:40;;;;;;;2.13;0.50;;;;;;;4.61;100.00;102632.16;5050691;28;20084;-68
2021/12/05 11:28:11;;;;;;;4.28;0.50;;;;;;;4.53;100.00;102624.59;5050688;28;20049;-67
2021/12/05 11:30:43;;;;;;;1.30;0.40;;;;;;;4.53;100.00;102637.41;5050608;28;20049;-68
2021/12/05 11:33:19;;;;;;;2.72;0.88;;;;;;;4.50;100.00;102629.47;5050396;28;20497;-67
2021/12/05 11:35:51;;;;;;;0.80;0.63;;;;;;;4.45;100.00;102628.19;5050865;28;20060;-68
2021/12/05 11:38:21;;;;;;;4.68;1.23;;;;;;;4.41;100.00;102624.47;5050664;28;20080;-68
2021/12/05 11:40:55;;;;;;;1.15;0.73;;;;;;;4.37;100.00;102625.84;5050553;28;20107;-68
2021/12/05 11:43:27;;;;;;;0.55;0.32;;;;;;;4.34;100.00;102614.47;5050463;28;20498;-68
2021/12/05 11:46:00;;;;;;;0.40;0.40;;;;;;;4.27;100.00;102618.16;5052964;28;20049;-67
2021/12/05 11:48:31;;;;;;;0.77;0.35;;;;;;;4.23;100.00;102628.03;5063576;28;20048;-68
2021/12/05 11:51:00;;;;;;;1.20;0.60;;;;;;;4.19;100.00;102624.28;5071030;28;20063;-67
2021/12/05 11:53:38;;;;;;;1.30;0.75;;;;;;;4.17;100.00;102626.75;5070225;28;20153;-67
2021/12/05 11:56:08;;;;;;;1.27;0.63;;;;;;;4.11;100.00;102621.09;5070673;28;20041;-67
2021/12/05 11:58:39;;;;;;;3.15;0.45;;;;;;;4.05;100.00;102625.69;5070552;28;20045;-67
2021/12/05 12:01:10;;;;;;;0.75;0.40;;;;;;;3.92;100.00;102626.31;5070883;28;20224;-68
2021/12/05 12:03:40;;;;;;;0.82;0.47;;;;;;;3.86;100.00;102614.63;5070082;28;20138;-67
2021/12/05 12:06:10;;;;;;;1.77;0.50;;;;;;;3.80;100.00;102627.78;5070469;28;20052;-67
2021/12/05 12:08:38;;;;;;;5.20;0.65;;;;;;;3.68;100.00;102617.38;5070535;28;20048;-68
2021/12/05 12:11:08;;;;;;;0.85;0.63;;;;;;;3.65;100.00;102609.44;5050987;28;20164;-67
2021/12/05 12:13:41;;;;;;;1.88;1.38;;;;;;;3.67;100.00;102619.81;5053852;28;20052;-68
2021/12/05 12:16:12;;;;;;;1.63;1.08;;;;;;;3.65;100.00;102629.91;5053931;28;20041;-67
2021/12/05 12:18:45;;;;;;;0.98;0.70;;;;;;;3.62;100.00;102636.41;5053865;28;20109;-67
2021/12/05 12:21:19;;;;;;;1.90;0.77;;;;;;;3.56;100.00;102640.25;5054132;28;20045;-67
2021/12/05 12:23:49;;;;;;;3.95;1.00;;;;;;;3.54;100.00;102641.78;5053377;28;20136;-67
2021/12/05 12:26:19;;;;;;;1.30;1.00;;;;;;;3.50;100.00;102642.25;5054150;28;20076;-68
2021/12/05 12:28:48;;;;;;;2.13;0.60;;;;;;;3.46;100.00;102647.91;5050709;28;20048;-67
2021/12/05 12:31:23;;;;;;;2.40;1.00;;;;;;;3.39;100.00;102657.44;5053855;28;20045;-68
2021/12/05 12:33:54;;;;;;;1.95;1.30;;;;;;;3.35;100.00;102658.84;5053101;28;20136;-67
2021/12/05 12:36:36;;;;;;;2.08;1.17;;;;;;;3.32;100.00;102651.78;5053451;28;20044;-67
2021/12/05 12:39:07;;;;;;;2.03;1.38;;;;;;;3.33;100.00;102655.25;5045706;28;20049;-67
2021/12/05 12:41:37;;;;;;;1.65;1.17;;;;;;;3.33;100.00;102653.56;5053480;28;20487;-67
2021/12/05 12:44:08;;;;;;;3.03;1.35;;;;;;;3.30;100.00;102648.19;5053063;28;20102;-68
2021/12/05 12:46:40;;;;;;;2.28;1.05;;;;;;;3.31;100.00;102656.75;5054852;28;20128;-67
2021/12/05 12:49:30;;;;;;;0.90;0.75;;;;;;;3.30;100.00;102660.09;5055461;28;20055;-67
2021/12/05 12:52:03;;;;;;;4.47;1.63;;;;;;;3.27;100.00;102672.59;5053657;28;20502;-67
2021/12/05 12:54:35;;;;;;;1.77;1.50;;;;;;;3.23;100.00;102667.94;5053173;28;20059;-67
2021/12/05 12:57:13;;;;;;;2.22;1.42;;;;;;;3.22;100.00;102671.28;5053467;28;20049;-67
2021/12/05 12:59:45;;;;;;;2.17;1.40;;;;;;;3.21;100.00;102677.16;5053216;28;20041;-67
2021/12/05 13:02:31;;;;;;;3.28;1.50;;;;;;;3.19;100.00;102688.94;5052912;28;20056;-67
2021/12/05 13:05:23;;;;;;;3.15;2.00;;;;;;;3.14;100.00;102684.28;5053074;28;20041;-67
2021/12/05 13:10:41;;;;;;;2.95;1.13;;;;;;;3.10;100.00;102695.00;5052071;28;20059;-67
2021/12/05 13:13:16;;;;;;;;;;;;;;;3.08;100.00;102683.72;5053345;28;20094;-67
2021/12/05 13:15:50;;;;;;;4.35;1.40;;;;;;;3.07;100.00;102692.16;5052953;28;20430;-67
2021/12/05 13:18:28;;;;;;;5.80;1.42;;;;;;;3.06;100.00;102682.69;5052910;28;20483;-67
2021/12/05 13:21:01;;;;;;;1.63;0.88;;;;;;;3.02;100.00;102689.94;5052762;28;20045;-67
2021/12/05 13:23:32;;;;;;;;;;;;;;;3.01;100.00;102690.72;5053013;28;20088;-68
2021/12/05 13:26:23;;;;;;;1.25;0.80;;;;;;;2.98;100.00;102688.78;5052768;28;19927;-67
2021/12/05 13:28:57;;;;;;;2.80;0.93;;;;;;;2.96;100.00;102684.28;5052753;28;20529;-67
2021/12/05 13:31:50;;;;;;;3.05;1.13;;;;;;;2.91;100.00;102686.44;5052809;28;20080;-67
2021/12/05 13:34:34;;;;;;;6.53;1.20;;;;;;;2.86;100.00;102682.53;5052408;28;20056;-67
2021/12/05 13:37:42;;;;;;;1.52;0.90;;;;;;;2.85;100.00;102699.53;5044556;28;20044;-67
2021/12/05 13:40:23;;;;;;;1.40;0.68;;;;;;;2.81;100.00;102701.66;5037831;28;20048;-67
2021/12/05 13:42:54;;;;;;;1.67;0.80;;;;;;;2.81;100.00;102704.22;5052416;28;20052;-67
2021/12/05 13:45:40;;;;;;;4.18;0.90;;;;;;;2.80;100.00;102698.22;5052237;28;20045;-67
2021/12/05 13:48:29;;;;;;;2.28;0.80;;;;;;;2.80;100.00;102697.31;5055069;28;20056;-67
2021/12/05 13:51:09;;;;;;;1.40;0.70;;;;;;;2.78;100.00;102711.63;5052532;28;20048;-67
2021/12/05 13:53:47;;;;;;;2.25;0.90;;;;;;;2.76;100.00;102705.47;5051797;28;20056;-67
2021/12/05 13:56:24;;;;;;;1.25;0.60;;;;;;;2.72;100.00;102702.59;5052312;28;20056;-67
2021/12/05 13:59:05;;;;;;;2.15;0.90;;;;;;;2.70;100.00;102709.25;5052154;28;20045;-67
2021/12/05 14:01:45;;;;;;;1.05;0.65;;;;;;;2.67;100.00;102705.50;5052369;28;20655;-67
2021/12/05 14:04:27;;;;;;;1.58;0.85;;;;;;;2.65;100.00;102710.47;5051580;28;20526;-67
2021/12/05 14:07:01;;;;;;;2.42;0.93;;;;;;;2.62;100.00;102699.97;5052303;28;20076;-67
2021/12/05 14:09:36;;;;;;;1.70;0.68;;;;;;;2.62;100.00;102692.31;5051507;28;20091;-67
2021/12/05 14:12:08;;;;;;;0.98;0.85;;;;;;;2.61;100.00;102695.63;5053034;28;20057;-67
2021/12/05 14:14:40;;;;;;;1.75;0.88;;;;;;;2.59;100.00;102697.16;5051604;28;20074;-67
2021/12/05 14:17:12;;;;;;;1.63;0.90;;;;;;;2.58;100.00;102697.88;5052048;28;20589;-67
2021/12/05 14:19:43;;;;;;;1.67;0.80;;;;;;;2.55;100.00;102707.84;5051553;28;20048;-68
2021/12/05 14:22:14;;;;;;;2.97;1.33;;;;;;;2.55;100.00;102709.50;5051578;28;20593;-67
2021/12/05 14:24:45;;;;;;;1.45;0.77;;;;;;;2.53;100.00;102717.00;5051525;28;20073;-67
2021/12/05 14:27:16;;;;;;;1.00;0.50;;;;;;;2.48;100.00;102721.69;5051723;28;20503;-67
2021/12/05 14:29:46;;;;;;;2.50;0.85;;;;;;;2.46;100.00;102709.53;5051303;28;20119;-67
2021/12/05 14:32:22;;;;;;;1.70;0.90;;;;;;;2.45;100.00;102715.38;5051476;28;20067;-67
2021/12/05 14:34:52;;;;;;;1.25;0.95;;;;;;;2.43;100.00;102730.59;5050771;28;20049;-67
2021/12/05 14:37:21;;;;;;;2.78;1.05;;;;;;;2.42;100.00;102725.31;5051626;28;20102;-67
2021/12/05 14:39:52;;;;;;;1.65;0.85;;;;;;;2.43;100.00;102719.47;5051210;28;20049;-67
2021/12/05 14:42:23;;;;;;;1.50;0.82;;;;;;;2.42;100.00;102723.66;5051005;28;20049;-67
2021/12/05 14:44:55;;;;;;;2.47;1.10;;;;;;;2.40;100.00;102729.38;5051305;28;20525;-68
2021/12/05 14:47:28;;;;;;;2.22;1.02;;;;;;;2.36;100.00;102737.50;5051801;28;20076;-68
2021/12/05 14:49:59;;;;;;;2.67;1.27;;;;;;;2.33;100.00;102735.56;5054613;28;20053;-67
2021/12/05 14:52:30;;;;;;;2.53;1.42;;;;;;;2.32;100.00;102735.44;5051026;28;20045;-67
2021/12/05 14:54:58;;;;;;;2.72;1.83;;;;;;;2.30;100.00;102728.53;5051162;28;20060;-68
2021/12/05 14:57:31;;;;;;;2.17;1.30;;;;;;;2.29;100.00;102725.81;5050963;28;20049;-67
2021/12/05 15:00:06;;;;;;;2.65;1.23;;;;;;;2.28;100.00;102735.13;5051271;28;20064;-67
2021/12/05 15:02:36;;;;;;;3.17;1.30;;;;;;;2.27;100.00;102737.56;5050839;28;20053;-67
2021/12/05 15:05:09;;;;;;;4.10;1.40;;;;;;;2.17;100.00;102735.78;5051753;28;20053;-67
2021/12/05 15:07:37;;;;;;;4.10;1.42;;;;;;;2.14;100.00;102745.72;5051069;28;20045;-68
2021/12/05 15:10:08;;;;;;;5.65;0.88;;;;;;;2.13;100.00;102748.09;5050786;28;20045;-68
2021/12/05 15:12:38;;;;;;;4.35;1.40;;;;;;;2.14;100.00;102750.81;5051772;28;20103;-68
2021/12/05 15:15:11;;;;;;;2.03;1.08;;;;;;;2.14;100.00;102762.69;5050856;28;20088;-68
2021/12/05 15:17:43;;;;;;;3.40;1.50;;;;;;;2.13;100.00;102754.13;5050982;28;20553;-68
2021/12/05 15:20:16;;;;;;;3.90;1.35;;;;;;;2.14;100.00;102752.47;5050727;28;20049;-68
2021/12/05 15:22:46;;;;;;;3.97;1.30;;;;;;;2.14;100.00;102758.47;5051618;28;20112;-68
2021/12/05 15:25:18;;;;;;;2.33;1.00;;;;;;;2.14;100.00;102761.03;5051321;28;20045;-68
2021/12/05 15:27:47;;;;;;;3.63;1.48;;;;;;;2.15;100.00;102773.03;5051276;28;20049;-68
2021/12/05 15:30:19;;;;;;;2.22;0.93;;;;;;;2.14;100.00;102772.91;5051264;28;20512;-68
2021/12/05 15:32:54;;;;;;;1.75;0.82;;;;;;;2.12;100.00;102780.41;5051009;28;20049;-67
2021/12/05 15:35:25;;;;;;;2.88;1.27;;;;;;;2.10;100.00;102777.69;5051303;28;20053;-68
2021/12/05 15:37:55;;;;;;;3.83;1.85;;;;;;;2.09;100.00;102783.56;5050909;28;20087;-68
2021/12/05 15:40:26;;;;;;;2.40;1.38;;;;;;;2.07;100.00;102782.53;5051006;28;20045;-68
2021/12/05 15:43:00;;;;;;;2.63;1.40;;;;;;;2.06;100.00;102780.75;5051177;28;20052;-68
2021/12/05 15:45:29;;;;;;;2.63;1.63;;;;;;;2.08;100.00;102791.06;5052665;28;20052;-68
2021/12/05 15:47:59;;;;;;;4.50;1.10;;;;;;;2.09;100.00;102793.78;5054886;28;20044;-67
2021/12/05 15:50:31;;;;;;;2.72;1.67;;;;;;;2.09;100.00;102793.78;5056814;28;20045;-68
2021/12/05 15:53:01;;;;;;;3.95;1.50;;;;;;;2.10;100.00;102800.69;5056623;28;20048;-67
2021/12/05 15:55:34;;;;;;;3.22;1.90;;;;;;;2.13;100.00;102802.66;5054945;28;20045;-68
2021/12/05 15:58:08;;;;;;;4.65;1.85;;;;;;;2.15;100.00;102806.22;5055127;28;20049;-68
2021/12/05 16:00:39;;;;;;;1.63;1.10;;;;;;;2.17;100.00;102807.28;5053730;28;20447;-68
2021/12/05 16:03:13;;;;;;;2.42;1.45;;;;;;;2.20;100.00;102807.59;5054545;28;20049;-67